Time;durP1;ratioP1;P1;durP2;ratioP2;P2;SDS_P1;SDS_P2;PMS_P1;PMS_P2;Temp;Humidity;BMP_temperature;BMP_pressure;BME280_temperature;BME280_humidity;BME280_pressure;Samples;Min_cycle;Max_cycle;Signal;HPM_P1;HPM_P2
2021/09/23 00:00:02;;;;;;;11.48;6.70;;;;;;;9.02;91.10;98793.88;4944616;28;20057;-59
2021/09/23 00:02:47;;;;;;;14.40;7.07;;;;;;;8.91;92.82;98792.38;4960111;28;20035;-58
2021/09/23 00:05:19;;;;;;;15.43;7.03;;;;;;;8.53;94.07;98797.50;4961057;28;20030;-59
2021/09/23 00:07:49;;;;;;;15.55;7.35;;;;;;;8.57;94.24;98796.53;4959577;28;20085;-58
2021/09/23 00:10:20;;;;;;;11.95;6.63;;;;;;;8.93;92.43;98801.00;4960851;28;20027;-58
2021/09/23 00:12:47;;;;;;;12.73;6.78;;;;;;;8.53;93.68;98799.22;4961206;28;20027;-59
2021/09/23 00:15:14;;;;;;;11.70;6.60;;;;;;;8.57;93.91;98803.47;4961463;28;20034;-60
2021/09/23 00:17:47;;;;;;;11.02;6.30;;;;;;;8.57;94.22;98808.69;4961159;28;20018;-58
2021/09/23 00:20:17;;;;;;;13.93;6.70;;;;;;;8.68;93.27;98791.97;4960416;28;20078;-59
2021/09/23 00:22:43;;;;;;;14.20;7.00;;;;;;;8.49;94.01;98801.88;4961117;28;20049;-58
2021/09/23 00:25:09;;;;;;;11.55;6.30;;;;;;;8.83;92.89;98795.13;4961047;28;20517;-59
2021/09/23 00:27:34;;;;;;;11.45;6.28;;;;;;;8.85;92.45;98793.34;4960652;28;20030;-57
2021/09/23 00:29:59;;;;;;;14.02;6.32;;;;;;;8.48;93.35;98794.13;4962407;28;20035;-58
2021/09/23 00:32:25;;;;;;;13.73;6.78;;;;;;;8.47;94.07;98793.28;4961319;28;20050;-60
2021/09/23 00:34:50;;;;;;;9.50;6.00;;;;;;;8.48;93.67;98799.31;4962719;28;20019;-58
2021/09/23 00:37:15;;;;;;;10.75;6.05;;;;;;;8.59;93.70;98797.34;4943780;28;20071;-57
2021/09/23 00:39:41;;;;;;;13.57;7.03;;;;;;;8.67;92.38;98792.88;4962367;28;20131;-59
2021/09/23 00:42:07;;;;;;;10.23;5.75;;;;;;;9.18;92.80;98778.75;4960789;28;20063;-58
2021/09/23 00:44:33;;;;;;;11.25;6.22;;;;;;;8.67;92.12;98777.25;4962341;28;20455;-57
2021/09/23 00:46:58;;;;;;;12.80;6.32;;;;;;;8.62;93.36;98780.81;4961086;28;20071;-58
2021/09/23 00:49:23;;;;;;;11.77;6.53;;;;;;;8.91;90.99;98777.59;4962467;28;20773;-58
2021/09/23 00:51:50;;;;;;;10.70;6.35;;;;;;;8.99;91.84;98770.50;4960531;28;20082;-57
2021/09/23 00:54:17;;;;;;;11.80;6.05;;;;;;;8.97;90.84;98772.28;4962340;28;20030;-58
2021/09/23 00:56:42;;;;;;;17.00;6.60;;;;;;;8.88;93.17;98770.72;4960991;28;20141;-60
2021/09/23 00:59:07;;;;;;;10.30;6.38;;;;;;;8.88;91.28;98768.13;4961898;28;20624;-61
2021/09/23 01:01:33;;;;;;;9.32;6.03;;;;;;;8.39;93.14;98761.31;4960717;28;20038;-59
2021/09/23 01:03:58;;;;;;;9.40;5.90;;;;;;;9.05;93.27;98757.34;4961517;28;20031;-59
2021/09/23 01:06:23;;;;;;;10.73;6.00;;;;;;;8.80;91.60;98749.22;4960445;28;20042;-60
2021/09/23 01:09:07;;;;;;;14.10;6.40;;;;;;;8.35;94.14;98756.22;4946462;28;20126;-60
2021/09/23 01:11:32;;;;;;;13.65;6.90;;;;;;;8.39;93.13;98760.47;4964372;28;20524;-60
2021/09/23 01:13:58;;;;;;;9.45;6.15;;;;;;;8.27;93.87;98757.22;4965484;28;20038;-58
2021/09/23 01:16:23;;;;;;;11.55;6.47;;;;;;;8.39;93.73;98757.88;4964587;28;20070;-59
2021/09/23 01:18:48;;;;;;;11.63;6.72;;;;;;;8.25;93.00;98756.41;4965698;28;20062;-61
2021/09/23 01:21:14;;;;;;;10.68;5.93;;;;;;;8.18;94.57;98765.22;4964558;28;20733;-60
2021/09/23 01:23:41;;;;;;;12.15;6.13;;;;;;;8.14;95.19;98760.94;4965351;28;20037;-59
2021/09/23 01:26:08;;;;;;;12.48;6.60;;;;;;;7.91;94.50;98759.63;4964559;28;20724;-60
2021/09/23 01:28:34;;;;;;;11.52;6.38;;;;;;;7.86;94.93;98758.84;4963455;28;20030;-59
2021/09/23 01:31:00;;;;;;;12.70;5.50;;;;;;;8.40;93.69;98749.16;4962482;28;20049;-59
2021/09/23 01:33:26;;;;;;;10.18;6.05;;;;;;;8.36;91.53;98742.31;4963165;28;20034;-59
2021/09/23 01:35:51;;;;;;;13.02;6.75;;;;;;;7.96;94.43;98740.50;4963685;28;20042;-59
2021/09/23 01:38:16;;;;;;;11.30;6.68;;;;;;;7.93;94.32;98737.97;4963440;28;20480;-59
2021/09/23 01:40:42;;;;;;;12.63;6.47;;;;;;;8.06;93.97;98744.63;4962828;28;20034;-58
2021/09/23 01:43:07;;;;;;;9.55;5.90;;;;;;;7.98;94.34;98741.34;4963660;28;20691;-60
2021/09/23 01:45:32;;;;;;;13.75;6.60;;;;;;;8.12;93.83;98749.72;4963170;28;20066;-59
2021/09/23 01:47:58;;;;;;;14.15;6.72;;;;;;;7.99;94.32;98740.44;4962980;28;20114;-58
2021/09/23 01:50:23;;;;;;;10.18;6.40;;;;;;;8.03;93.04;98745.56;4962403;28;20334;-59
2021/09/23 01:52:48;;;;;;;12.57;6.53;;;;;;;7.91;93.84;98735.38;4963085;28;20084;-59
2021/09/23 01:55:14;;;;;;;11.82;6.97;;;;;;;8.20;94.81;98732.25;4962841;28;20061;-59
2021/09/23 01:57:39;;;;;;;12.70;6.30;;;;;;;8.09;92.02;98729.84;4962644;28;20054;-59
2021/09/23 02:00:06;;;;;;;15.70;6.72;;;;;;;8.01;92.47;98730.88;4962309;28;20027;-58
2021/09/23 02:02:31;;;;;;;11.40;6.78;;;;;;;8.11;92.04;98722.88;4962660;28;20784;-59
2021/09/23 02:04:56;;;;;;;11.50;6.35;;;;;;;8.11;91.85;98725.47;4962464;28;20035;-59
2021/09/23 02:07:22;;;;;;;9.50;6.55;;;;;;;8.14;92.05;98724.53;4944532;28;20030;-61
2021/09/23 02:09:48;;;;;;;11.05;6.68;;;;;;;7.83;93.87;98717.34;4963147;28;20678;-58
2021/09/23 02:12:13;;;;;;;13.13;6.35;;;;;;;7.89;92.78;98717.22;4962163;28;20524;-59
2021/09/23 02:14:39;;;;;;;13.15;6.07;;;;;;;7.88;93.54;98718.13;4945865;28;20018;-59
2021/09/23 02:17:04;;;;;;;10.88;5.90;;;;;;;7.97;94.39;98718.84;4962312;28;20046;-59
2021/09/23 02:19:29;;;;;;;9.40;5.95;;;;;;;8.19;92.69;98719.28;4962009;28;20054;-61
2021/09/23 02:21:55;;;;;;;12.48;6.13;;;;;;;7.96;92.23;98711.91;4961482;28;20679;-62
2021/09/23 02:24:20;;;;;;;12.82;6.38;;;;;;;7.76;92.57;98714.91;4962699;28;20062;-58
2021/09/23 02:26:46;;;;;;;11.98;6.35;;;;;;;7.71;92.80;98707.19;4962268;28;20050;-60
2021/09/23 02:29:11;;;;;;;10.20;6.28;;;;;;;7.69;92.94;98698.56;4962874;28;20031;-59
2021/09/23 02:31:36;;;;;;;13.20;6.43;;;;;;;7.70;93.32;98689.88;4961627;28;20046;-58
2021/09/23 02:34:02;;;;;;;9.55;6.20;;;;;;;7.75;92.45;98684.63;4944821;28;20531;-58
2021/09/23 02:36:27;;;;;;;11.05;6.18;;;;;;;7.72;91.70;98678.59;4944674;28;20042;-59
2021/09/23 02:38:53;;;;;;;10.38;6.10;;;;;;;7.58;92.86;98679.75;4962419;28;20030;-59
2021/09/23 02:41:18;;;;;;;12.00;6.07;;;;;;;7.83;91.53;98680.13;4961431;28;20046;-59
2021/09/23 02:43:43;;;;;;;12.93;6.22;;;;;;;7.86;90.47;98669.69;4962289;28;20020;-59
2021/09/23 02:46:09;;;;;;;10.80;6.20;;;;;;;7.84;90.79;98666.25;4961702;28;20039;-59
2021/09/23 02:48:34;;;;;;;11.10;6.40;;;;;;;7.86;91.56;98654.94;4961881;28;20691;-59
2021/09/23 02:50:59;;;;;;;10.85;5.80;;;;;;;7.72;91.29;98656.97;4961229;28;20077;-59
2021/09/23 02:53:25;;;;;;;9.82;6.20;;;;;;;7.55;93.18;98661.59;4962103;28;20481;-60
2021/09/23 02:55:50;;;;;;;12.75;6.47;;;;;;;7.25;93.73;98661.28;4961889;28;20097;-59
2021/09/23 02:58:16;;;;;;;11.98;6.30;;;;;;;7.31;94.92;98662.00;4961739;28;20034;-59
2021/09/23 03:00:41;;;;;;;9.90;6.00;;;;;;;7.43;93.18;98653.16;4961262;28;20046;-59
2021/09/23 03:03:07;;;;;;;10.68;6.18;;;;;;;7.32;92.14;98653.34;4962214;28;20031;-60
2021/09/23 03:05:33;;;;;;;9.70;5.65;;;;;;;7.43;92.16;98642.78;4960431;28;20040;-59
2021/09/23 03:07:58;;;;;;;8.93;5.57;;;;;;;7.25;92.64;98637.91;4961367;28;20058;-58
2021/09/23 03:10:24;;;;;;;11.20;6.22;;;;;;;7.62;91.24;98632.06;4960899;28;20045;-59
2021/09/23 03:12:49;;;;;;;10.15;5.95;;;;;;;7.51;91.89;98635.69;4961642;28;20041;-59
2021/09/23 03:15:14;;;;;;;11.30;6.40;;;;;;;7.33;92.79;98628.25;4961240;28;20039;-59
2021/09/23 03:17:40;;;;;;;10.95;5.85;;;;;;;7.30;93.05;98623.97;4961624;28;20015;-59
2021/09/23 03:20:06;;;;;;;12.32;6.38;;;;;;;7.46;92.85;98629.75;4960846;28;21284;-58
2021/09/23 03:22:33;;;;;;;12.38;6.43;;;;;;;7.21;93.82;98638.88;4961471;28;20042;-59
2021/09/23 03:24:58;;;;;;;13.25;6.22;;;;;;;7.13;94.03;98637.25;4961093;28;20033;-59
2021/09/23 03:27:23;;;;;;;10.70;5.60;;;;;;;7.73;93.18;98628.34;4960816;28;20035;-59
2021/09/23 03:29:49;;;;;;;12.90;5.78;;;;;;;7.48;91.95;98619.31;4961349;28;20117;-60
2021/09/23 03:32:14;;;;;;;11.98;6.32;;;;;;;7.63;91.76;98611.25;4960283;28;20448;-59
2021/09/23 03:34:40;;;;;;;10.45;6.28;;;;;;;7.37;92.51;98613.47;4961871;28;20058;-59
2021/09/23 03:37:05;;;;;;;13.88;6.60;;;;;;;7.18;92.78;98607.75;4960924;28;20039;-60
2021/09/23 03:39:31;;;;;;;10.35;5.90;;;;;;;7.04;94.84;98606.28;4961774;28;20031;-60
2021/09/23 03:41:56;;;;;;;11.65;6.05;;;;;;;7.69;93.83;98605.94;4960473;28;20042;-59
2021/09/23 03:44:21;;;;;;;9.63;5.68;;;;;;;7.19;93.11;98593.94;4961616;28;20523;-59
2021/09/23 03:46:47;;;;;;;10.48;5.88;;;;;;;7.68;92.05;98587.78;4943142;28;20081;-60
2021/09/23 03:49:12;;;;;;;11.35;6.68;;;;;;;7.52;90.88;98589.84;4961689;28;20031;-59
2021/09/23 03:51:38;;;;;;;11.52;6.30;;;;;;;7.55;91.06;98601.91;4960123;28;20049;-59
2021/09/23 03:54:03;;;;;;;8.68;5.30;;;;;;;7.63;93.47;98606.06;4961697;28;20088;-59
2021/09/23 03:56:29;;;;;;;10.73;5.80;;;;;;;7.37;91.21;98603.97;4960892;28;20034;-58
2021/09/23 03:58:54;;;;;;;11.20;5.93;;;;;;;7.21;93.29;98597.34;4961524;28;20729;-59
2021/09/23 04:01:19;;;;;;;9.73;6.25;;;;;;;7.39;92.27;98586.63;4960110;28;20902;-59
2021/09/23 04:03:45;;;;;;;11.30;6.32;;;;;;;7.17;91.56;98588.75;4959152;28;20639;-59
2021/09/23 04:06:10;;;;;;;10.55;6.30;;;;;;;7.64;92.59;98592.19;4959529;28;20039;-60
2021/09/23 04:08:36;;;;;;;10.13;5.68;;;;;;;7.56;92.45;98594.09;4960565;28;20038;-60
2021/09/23 04:11:01;;;;;;;11.85;6.40;;;;;;;7.40;91.64;98603.91;4960083;28;20043;-60
2021/09/23 04:13:27;;;;;;;9.73;5.95;;;;;;;7.45;92.03;98591.69;4961095;28;20031;-59
2021/09/23 04:15:52;;;;;;;9.32;5.75;;;;;;;7.92;91.63;98586.44;4960951;28;20043;-59
2021/09/23 04:18:18;;;;;;;9.85;6.10;;;;;;;7.87;89.83;98594.31;4942568;28;20558;-60
2021/09/23 04:20:45;;;;;;;12.13;6.55;;;;;;;7.87;90.30;98590.88;4958091;28;20046;-59
2021/09/23 04:23:11;;;;;;;10.85;5.93;;;;;;;7.51;91.18;98586.38;4958705;28;20117;-60
2021/09/23 04:25:36;;;;;;;10.13;5.10;;;;;;;7.66;92.82;98577.44;4960213;28;20617;-59
2021/09/23 04:28:02;;;;;;;12.02;5.80;;;;;;;7.32;91.84;98579.84;4960430;28;20042;-59
2021/09/23 04:30:27;;;;;;;10.52;6.13;;;;;;;7.17;92.96;98580.97;4957590;28;20049;-60
2021/09/23 04:32:52;;;;;;;10.90;5.90;;;;;;;7.00;94.56;98583.00;4959959;28;20037;-59
2021/09/23 04:35:18;;;;;;;10.10;6.00;;;;;;;7.41;95.08;98581.41;4960347;28;20027;-59
2021/09/23 04:37:43;;;;;;;11.23;6.32;;;;;;;7.37;91.82;98578.03;4960904;28;20035;-59
2021/09/23 04:40:09;;;;;;;13.40;6.80;;;;;;;7.57;91.45;98584.56;4960046;28;20027;-61
2021/09/23 04:42:35;;;;;;;9.77;5.95;;;;;;;7.67;90.94;98583.50;4961276;28;20027;-60
2021/09/23 04:45:00;;;;;;;12.85;5.75;;;;;;;6.96;93.55;98595.16;4964772;28;20022;-59
2021/09/23 04:47:25;;;;;;;9.68;5.72;;;;;;;7.46;92.17;98582.16;4964355;28;20416;-59
2021/09/23 04:49:51;;;;;;;10.38;5.90;;;;;;;7.61;93.65;98576.69;4964830;28;20037;-59
2021/09/23 04:52:16;;;;;;;10.10;6.05;;;;;;;7.48;90.73;98576.06;4963493;28;20046;-59
2021/09/23 04:54:41;;;;;;;10.75;5.70;;;;;;;8.11;89.49;98569.56;4964801;28;20901;-60
2021/09/23 04:57:07;;;;;;;11.85;6.30;;;;;;;7.46;92.54;98569.19;4964019;28;20094;-61
2021/09/23 04:59:32;;;;;;;11.68;6.15;;;;;;;7.07;93.87;98562.09;4964892;28;20097;-59
2021/09/23 05:01:57;;;;;;;9.23;5.68;;;;;;;7.58;94.31;98562.91;4963619;28;20570;-59
2021/09/23 05:04:23;;;;;;;10.82;6.38;;;;;;;7.64;91.43;98561.03;4964396;28;20543;-60
2021/09/23 05:06:48;;;;;;;11.88;6.97;;;;;;;7.00;94.21;98557.91;4964026;28;20574;-59
2021/09/23 05:09:13;;;;;;;8.77;5.20;;;;;;;7.84;92.69;98552.81;4964889;28;20022;-59
2021/09/23 05:11:39;;;;;;;13.32;7.78;;;;;;;7.29;91.05;98552.19;4962978;28;20054;-59
2021/09/23 05:14:05;;;;;;;11.07;7.10;;;;;;;7.08;92.11;98556.03;4947831;28;20089;-59
2021/09/23 05:16:30;;;;;;;13.20;7.43;;;;;;;7.21;93.00;98556.69;4963618;28;20042;-61
2021/09/23 05:18:55;;;;;;;15.75;7.35;;;;;;;7.19;92.36;98552.41;4964539;28;20731;-59
2021/09/23 05:21:21;;;;;;;11.32;6.85;;;;;;;7.30;92.82;98555.66;4962989;28;20573;-59
2021/09/23 05:23:46;;;;;;;9.98;5.97;;;;;;;7.94;91.51;98553.50;4964189;28;20751;-60
2021/09/23 05:26:12;;;;;;;12.27;5.97;;;;;;;8.20;91.61;98555.53;4963846;28;20046;-59
2021/09/23 05:28:37;;;;;;;12.63;6.25;;;;;;;8.08;89.48;98548.00;4963819;28;20096;-59
2021/09/23 05:31:04;;;;;;;11.00;6.57;;;;;;;7.69;91.17;98538.44;4963190;28;20042;-61
2021/09/23 05:33:29;;;;;;;13.23;6.13;;;;;;;8.04;91.06;98551.56;4963805;28;20607;-60
2021/09/23 05:35:55;;;;;;;11.50;6.50;;;;;;;8.34;90.36;98551.75;4963894;28;20125;-61
2021/09/23 05:38:23;;;;;;;11.43;6.85;;;;;;;8.24;92.57;98544.16;4963771;28;20037;-59
2021/09/23 05:40:48;;;;;;;9.65;5.63;;;;;;;8.54;89.64;98535.72;4952187;28;20378;-61
2021/09/23 05:43:14;;;;;;;14.63;7.18;;;;;;;7.32;93.49;98543.50;4964155;28;20527;-59
2021/09/23 05:45:39;;;;;;;14.98;7.85;;;;;;;8.17;89.81;98550.38;4963440;28;20388;-59
2021/09/23 05:48:04;;;;;;;14.32;6.65;;;;;;;8.50;90.45;98540.13;4963740;28;20029;-60
2021/09/23 05:50:30;;;;;;;11.70;6.63;;;;;;;8.23;92.57;98544.19;4962735;28;20067;-59
2021/09/23 05:52:55;;;;;;;10.82;6.93;;;;;;;8.24;91.68;98540.72;4963713;28;20578;-59
2021/09/23 05:55:22;;;;;;;14.05;6.97;;;;;;;8.60;89.72;98543.34;4961691;28;20027;-59
2021/09/23 05:57:48;;;;;;;13.90;7.60;;;;;;;8.65;89.29;98542.34;4963375;28;20431;-59
2021/09/23 06:00:16;;;;;;;15.75;7.60;;;;;;;8.39;91.23;98544.72;4962639;28;20646;-60
2021/09/23 06:02:43;;;;;;;12.02;7.07;;;;;;;8.30;91.91;98541.41;4963775;28;20675;-59
2021/09/23 06:05:09;;;;;;;14.98;7.50;;;;;;;8.55;91.89;98540.03;4963166;28;20109;-59
2021/09/23 06:07:35;;;;;;;16.17;7.43;;;;;;;8.83;91.13;98538.44;4946229;28;20026;-60
2021/09/23 06:10:00;;;;;;;12.70;7.53;;;;;;;9.37;87.41;98531.81;4963279;28;20022;-60
2021/09/23 06:12:25;;;;;;;11.70;6.47;;;;;;;9.62;88.45;98533.75;4944849;28;20463;-59
2021/09/23 06:14:51;;;;;;;11.65;6.78;;;;;;;9.55;85.35;98542.63;4963200;28;20708;-59
2021/09/23 06:17:17;;;;;;;11.52;6.35;;;;;;;9.62;89.60;98541.56;4962881;28;20050;-61
2021/09/23 06:19:42;;;;;;;11.50;6.32;;;;;;;10.31;86.71;98529.09;4963119;28;20031;-59
2021/09/23 06:22:08;;;;;;;12.88;6.45;;;;;;;10.88;87.05;98527.25;4944624;28;20190;-60
2021/09/23 06:24:34;;;;;;;16.05;7.55;;;;;;;10.69;82.83;98523.53;4963109;28;20669;-59
2021/09/23 06:26:59;;;;;;;16.73;6.47;;;;;;;10.84;85.47;98525.63;4962844;28;20046;-60
2021/09/23 06:29:25;;;;;;;10.00;6.43;;;;;;;10.54;84.37;98528.34;4962662;28;20033;-61
2021/09/23 06:31:50;;;;;;;13.45;5.88;;;;;;;11.04;81.99;98518.88;4961437;28;20039;-60
2021/09/23 06:34:15;;;;;;;12.95;6.55;;;;;;;11.23;80.70;98514.75;4962567;28;20137;-58
2021/09/23 06:36:41;;;;;;;13.50;6.30;;;;;;;12.09;77.73;98503.75;4961636;28;20876;-61
2021/09/23 06:39:06;;;;;;;11.20;5.60;;;;;;;14.12;73.13;98504.63;4961741;28;20260;-58
2021/09/23 06:41:32;;;;;;;10.45;5.60;;;;;;;15.70;66.51;98494.97;4961005;28;20043;-59
2021/09/23 06:44:02;;;;;;;8.68;4.90;;;;;;;16.20;66.37;98491.38;4962311;28;20030;-59
2021/09/23 06:46:27;;;;;;;8.63;4.95;;;;;;;18.39;60.39;98504.63;4961595;28;20054;-59
2021/09/23 06:48:53;;;;;;;7.80;4.30;;;;;;;17.83;62.15;98497.56;4962307;28;20026;-58
2021/09/23 06:51:19;;;;;;;6.45;4.20;;;;;;;19.61;54.04;98487.56;4961074;28;20069;-60
2021/09/23 06:53:45;;;;;;;9.50;4.28;;;;;;;20.34;52.07;98493.00;4962003;28;20486;-59
2021/09/23 06:56:11;;;;;;;9.93;4.00;;;;;;;21.44;49.64;98497.09;4961679;28;20046;-59
2021/09/23 06:58:36;;;;;;;6.82;4.10;;;;;;;22.48;45.71;98495.13;4961795;28;20037;-60
2021/09/23 07:01:01;;;;;;;8.50;4.20;;;;;;;22.62;45.23;98493.97;4961120;28;20045;-60
2021/09/23 07:03:27;;;;;;;11.05;4.15;;;;;;;22.64;45.20;98495.53;4962170;28;20727;-59
2021/09/23 07:05:52;;;;;;;8.02;4.65;;;;;;;22.49;44.86;98496.78;4961135;28;20050;-59
2021/09/23 07:08:18;;;;;;;8.40;4.00;;;;;;;22.93;44.72;98492.25;4961751;28;20030;-58
2021/09/23 07:10:45;;;;;;;6.07;4.07;;;;;;;24.51;41.96;98496.31;4959887;28;20576;-59
2021/09/23 07:13:11;;;;;;;8.02;4.30;;;;;;;24.52;42.05;98494.47;4961324;28;20031;-58
2021/09/23 07:15:37;;;;;;;6.60;4.43;;;;;;;23.60;43.71;98504.31;4960923;28;20039;-60
2021/09/23 07:18:02;;;;;;;7.80;4.80;;;;;;;26.20;38.44;98489.47;4961180;28;20400;-59
2021/09/23 07:20:28;;;;;;;6.80;4.60;;;;;;;25.31;39.11;98491.66;4960689;28;20066;-59
2021/09/23 07:22:53;;;;;;;9.07;4.57;;;;;;;23.79;42.52;98489.38;4961224;28;20488;-59
2021/09/23 07:25:23;;;;;;;10.27;4.72;;;;;;;24.59;42.09;98485.81;4943553;28;20019;-59
2021/09/23 07:27:49;;;;;;;8.25;4.55;;;;;;;23.93;42.42;98489.06;4960887;28;20033;-60
2021/09/23 07:30:14;;;;;;;8.15;4.50;;;;;;;24.82;41.34;98485.53;4960799;28;20039;-58
2021/09/23 07:32:39;;;;;;;8.07;4.80;;;;;;;25.35;40.44;98490.38;4961130;28;20027;-58
2021/09/23 07:35:05;;;;;;;9.60;4.05;;;;;;;25.35;40.70;98489.56;4944118;28;20661;-61
2021/09/23 07:37:32;;;;;;;7.88;4.10;;;;;;;26.37;38.30;98477.13;4960940;28;20420;-59
2021/09/23 07:39:58;;;;;;;6.30;3.92;;;;;;;26.04;39.34;98487.44;4961543;28;20050;-59
2021/09/23 07:42:23;;;;;;;9.98;3.88;;;;;;;26.48;37.40;98476.88;4960019;28;20045;-58
2021/09/23 07:44:49;;;;;;;5.88;3.83;;;;;;;26.92;37.83;98466.25;4961573;28;20046;-62
2021/09/23 07:47:15;;;;;;;8.18;4.00;;;;;;;24.69;40.73;98463.66;4960591;28;20445;-59
2021/09/23 07:49:40;;;;;;;5.47;3.63;;;;;;;26.76;37.82;98455.41;4961227;28;20077;-60
2021/09/23 07:52:06;;;;;;;6.72;3.88;;;;;;;26.86;38.31;98451.66;4959896;28;20121;-59
2021/09/23 07:54:32;;;;;;;8.98;3.85;;;;;;;26.77;37.96;98454.44;4961384;28;20027;-59
2021/09/23 07:56:58;;;;;;;7.03;3.42;;;;;;;27.57;37.34;98455.16;4960173;28;20089;-60
2021/09/23 07:59:23;;;;;;;12.13;4.10;;;;;;;26.74;38.29;98458.25;4961644;28;20121;-59
2021/09/23 08:01:49;;;;;;;8.63;3.85;;;;;;;28.43;36.01;98445.19;4957160;28;20023;-60
2021/09/23 08:04:14;;;;;;;5.63;3.35;;;;;;;27.91;36.97;98448.94;4943456;28;20019;-59
2021/09/23 08:06:40;;;;;;;6.72;3.58;;;;;;;27.11;37.68;98435.75;4960391;28;20061;-60
2021/09/23 08:09:06;;;;;;;7.20;3.70;;;;;;;28.81;35.93;98440.22;4961188;28;20027;-60
2021/09/23 08:11:31;;;;;;;8.85;3.80;;;;;;;28.59;36.45;98439.88;4958711;28;20041;-60
2021/09/23 08:13:57;;;;;;;8.80;3.75;;;;;;;28.63;35.57;98446.56;4961207;28;20034;-60
2021/09/23 08:16:23;;;;;;;7.35;3.55;;;;;;;28.08;37.21;98452.50;4960137;28;20046;-60
2021/09/23 08:18:48;;;;;;;8.95;3.78;;;;;;;28.35;37.09;98447.88;4960277;28;20114;-60
2021/09/23 08:21:14;;;;;;;6.65;3.42;;;;;;;29.73;35.09;98447.91;4959780;28;20038;-60
2021/09/23 08:23:39;;;;;;;7.47;3.90;;;;;;;29.67;34.61;98445.94;4944022;28;20121;-60
2021/09/23 08:26:04;;;;;;;7.43;3.70;;;;;;;26.87;39.30;98441.78;4960197;28;20130;-59
2021/09/23 08:28:32;;;;;;;8.18;3.90;;;;;;;29.02;36.24;98429.81;4960679;28;20452;-60
2021/09/23 08:30:58;;;;;;;7.50;4.00;;;;;;;27.15;37.85;98429.13;4958655;28;20039;-59
2021/09/23 08:33:24;;;;;;;8.25;3.67;;;;;;;28.95;35.49;98418.06;4960583;28;20041;-60
2021/09/23 08:35:49;;;;;;;7.30;3.90;;;;;;;25.17;41.54;98425.34;4959995;28;20039;-59
2021/09/23 08:38:19;;;;;;;5.85;3.17;;;;;;;27.12;37.29;98410.69;4960059;28;20397;-59
2021/09/23 08:40:47;;;;;;;5.72;3.47;;;;;;;29.25;35.63;98418.34;4958918;28;20030;-58
2021/09/23 08:43:14;;;;;;;5.32;2.70;;;;;;;26.57;36.99;98414.44;4960343;28;20114;-59
2021/09/23 08:45:40;;;;;;;6.78;2.70;;;;;;;25.56;38.94;98415.38;4960297;28;20677;-60
2021/09/23 08:48:06;;;;;;;5.20;2.70;;;;;;;26.28;37.25;98412.88;4960260;28;20034;-59
2021/09/23 08:50:32;;;;;;;5.43;2.80;;;;;;;27.14;37.50;98416.72;4959157;28;20252;-59
2021/09/23 08:52:58;;;;;;;5.57;2.60;;;;;;;24.33;40.90;98410.81;4933106;28;20042;-62
2021/09/23 08:55:27;;;;;;;5.28;2.63;;;;;;;23.73;41.24;98412.69;4960174;28;20440;-58
2021/09/23 08:57:53;;;;;;;6.03;2.60;;;;;;;24.77;40.43;98413.91;4959886;28;20672;-62
2021/09/23 09:00:21;;;;;;;5.65;2.80;;;;;;;23.59;42.09;98411.25;4959565;28;20569;-59
2021/09/23 09:02:59;;;;;;;5.07;2.70;;;;;;;23.88;41.79;98395.38;4960397;28;20374;-60
2021/09/23 09:05:25;;;;;;;5.47;2.60;;;;;;;24.07;40.99;98393.72;4960034;28;20023;-59
2021/09/23 09:07:59;;;;;;;5.43;2.58;;;;;;;24.63;40.02;98387.72;4959739;28;20023;-59
2021/09/23 09:10:25;;;;;;;8.65;2.88;;;;;;;23.81;42.05;98379.09;4959221;28;20035;-60
2021/09/23 09:12:51;;;;;;;7.03;2.70;;;;;;;25.04;39.31;98377.63;4960061;28;20057;-59
2021/09/23 09:15:18;;;;;;;7.60;2.95;;;;;;;24.61;40.49;98370.97;4960211;28;20062;-61
2021/09/23 09:17:43;;;;;;;4.85;2.50;;;;;;;24.50;41.35;98373.78;4959944;28;20031;-59
2021/09/23 09:20:09;;;;;;;4.95;2.60;;;;;;;24.70;41.22;98369.28;4942033;28;20037;-63
2021/09/23 09:22:35;;;;;;;7.13;2.90;;;;;;;24.49;40.71;98369.44;4959529;28;20057;-59
2021/09/23 09:25:10;;;;;;;4.88;2.55;;;;;;;25.13;39.83;98359.91;4959991;28;20496;-60
2021/09/23 09:27:45;;;;;;;6.00;2.65;;;;;;;25.95;38.34;98361.75;4959084;28;20167;-60
2021/09/23 09:30:17;;;;;;;5.35;2.45;;;;;;;25.05;39.48;98362.44;4961225;28;20045;-62
2021/09/23 09:32:48;;;;;;;5.78;2.65;;;;;;;26.66;37.03;98359.19;4963198;28;20539;-60
2021/09/23 09:35:30;;;;;;;4.93;2.50;;;;;;;24.66;40.82;98352.72;4963090;28;20039;-60
2021/09/23 09:37:57;;;;;;;5.68;2.70;;;;;;;26.19;38.22;98357.63;4962962;28;20030;-60
2021/09/23 09:40:30;;;;;;;8.38;2.92;;;;;;;26.18;38.41;98353.28;4962293;28;20482;-60
2021/09/23 09:42:55;;;;;;;10.30;2.88;;;;;;;25.03;39.97;98349.25;4946364;28;20598;-62
2021/09/23 09:45:26;;;;;;;8.35;2.70;;;;;;;29.25;34.05;98335.09;4963114;28;20054;-59
2021/09/23 09:47:53;;;;;;;6.35;2.60;;;;;;;25.43;40.44;98341.94;4963034;28;20069;-59
2021/09/23 09:50:21;;;;;;;6.97;2.60;;;;;;;24.79;40.36;98320.41;4962514;28;20255;-61
2021/09/23 09:52:49;;;;;;;5.63;2.60;;;;;;;28.78;34.14;98319.75;4960116;28;20056;-60
2021/09/23 09:55:14;;;;;;;5.35;2.50;;;;;;;26.88;38.82;98302.47;4960289;28;20102;-60
2021/09/23 09:57:47;;;;;;;8.57;3.60;;;;;;;25.77;39.76;98310.94;4962194;28;20105;-61
2021/09/23 10:00:14;;;;;;;6.75;2.78;;;;;;;25.15;39.76;98318.72;4961735;28;20037;-60
2021/09/23 10:02:43;;;;;;;8.18;2.90;;;;;;;25.55;40.04;98314.88;4962695;28;20038;-60
2021/09/23 10:05:09;;;;;;;6.55;2.60;;;;;;;24.82;40.21;98307.63;4962249;28;20035;-62
2021/09/23 10:07:36;;;;;;;9.20;2.60;;;;;;;25.38;39.47;98307.66;4962575;28;20752;-61
2021/09/23 10:10:03;;;;;;;4.68;2.38;;;;;;;25.53;39.77;98303.53;4962893;28;20480;-61
2021/09/23 10:12:30;;;;;;;5.35;2.40;;;;;;;25.43;40.23;98304.56;4961056;28;20049;-60
2021/09/23 10:14:55;;;;;;;5.88;2.80;;;;;;;24.90;40.47;98300.72;4962462;28;20019;-59
2021/09/23 10:17:22;;;;;;;5.70;2.80;;;;;;;25.37;40.74;98298.00;4961562;28;20121;-61
2021/09/23 10:19:48;;;;;;;5.88;2.67;;;;;;;25.37;40.72;98300.66;4962176;28;20492;-60
2021/09/23 10:22:14;;;;;;;8.63;2.60;;;;;;;26.03;40.26;98298.69;4961591;28;20050;-61
2021/09/23 10:24:43;;;;;;;5.13;2.70;;;;;;;24.75;41.66;98292.34;4962772;28;20034;-60
2021/09/23 10:29:57;;;;;;;5.47;2.92;;;;;;;24.48;41.90;98287.75;4961972;28;20173;-60
2021/09/23 10:32:22;;;;;;;7.43;2.83;;;;;;;24.95;41.75;98288.63;4960842;28;20543;-61
2021/09/23 10:34:51;;;;;;;5.05;2.80;;;;;;;25.15;41.88;98294.69;4942642;28;20039;-61
2021/09/23 10:37:18;;;;;;;5.10;2.97;;;;;;;25.14;41.95;98282.34;4961321;28;20142;-60
2021/09/23 10:39:45;;;;;;;6.53;3.10;;;;;;;25.09;41.63;98292.63;4960234;28;20036;-60
2021/09/23 10:42:13;;;;;;;6.68;2.80;;;;;;;25.41;41.61;98288.69;4957052;28;20042;-61
2021/09/23 10:44:39;;;;;;;5.47;3.10;;;;;;;24.47;42.16;98286.94;4959860;28;20045;-61
2021/09/23 10:47:07;;;;;;;4.78;2.60;;;;;;;25.56;41.11;98281.84;4958638;28;20034;-60
2021/09/23 10:49:33;;;;;;;6.35;2.83;;;;;;;25.74;40.54;98283.69;4962246;28;20037;-61
2021/09/23 10:51:59;;;;;;;5.93;2.85;;;;;;;26.63;39.59;98280.06;4960726;28;21984;-60
2021/09/23 10:54:25;;;;;;;6.68;2.70;;;;;;;26.57;39.19;98290.56;4959340;28;20122;-60
2021/09/23 10:56:51;;;;;;;7.28;3.00;;;;;;;24.66;41.78;98278.06;4959591;28;20043;-60
2021/09/23 10:59:17;;;;;;;6.82;3.08;;;;;;;25.34;40.24;98277.75;4961890;28;20066;-61
2021/09/23 11:01:44;;;;;;;5.82;2.80;;;;;;;25.09;41.50;98263.28;4960434;28;20078;-62
2021/09/23 11:04:12;;;;;;;6.72;3.55;;;;;;;25.75;41.57;98259.50;4961507;28;20831;-60
2021/09/23 11:06:40;;;;;;;7.30;3.10;;;;;;;25.71;42.01;98260.78;4961263;28;20055;-60
2021/09/23 11:09:20;;;;;;;6.55;3.03;;;;;;;26.21;40.44;98254.06;4960996;28;20112;-61
2021/09/23 11:11:55;;;;;;;7.45;3.05;;;;;;;25.68;40.40;98255.75;4959499;28;20085;-60
2021/09/23 11:14:22;;;;;;;13.95;2.97;;;;;;;25.30;41.47;98248.84;4960843;28;20023;-61
2021/09/23 11:16:50;;;;;;;4.72;2.80;;;;;;;24.89;43.68;98245.69;4960980;28;20049;-59
2021/09/23 11:19:21;;;;;;;5.05;3.03;;;;;;;25.04;42.08;98236.19;4961736;28;20061;-61
2021/09/23 11:21:48;;;;;;;6.88;3.00;;;;;;;25.73;40.48;98236.59;4960023;28;20030;-60
2021/09/23 11:24:15;;;;;;;5.22;2.72;;;;;;;25.21;41.91;98232.69;4961699;28;20034;-60
2021/09/23 11:26:40;;;;;;;6.57;2.72;;;;;;;24.88;42.60;98217.31;4943228;28;20050;-60
2021/09/23 11:29:06;;;;;;;8.52;2.80;;;;;;;24.72;42.30;98224.16;4961171;28;20031;-60
2021/09/23 11:31:54;;;;;;;4.45;2.65;;;;;;;24.03;42.86;98218.13;4959758;28;20038;-59